sensor_id;sensor_type;location;lat;lon;timestamp;temperature;humidity
12287;DHT22;6206;53.100;11.098;2022-08-21T00:00:59;17.10;99.90
12287;DHT22;6206;53.100;11.098;2022-08-21T00:03:27;18.30;99.90
12287;DHT22;6206;53.100;11.098;2022-08-21T00:05:54;17.70;99.90
12287;DHT22;6206;53.100;11.098;2022-08-21T00:08:21;17.90;99.90
12287;DHT22;6206;53.100;11.098;2022-08-21T00:10:48;17.70;99.90
12287;DHT22;6206;53.100;11.098;2022-08-21T00:13:18;17.50;99.90
12287;DHT22;6206;53.100;11.098;2022-08-21T00:15:46;16.70;99.90
12287;DHT22;6206;53.100;11.098;2022-08-21T00:18:14;20.90;99.90
12287;DHT22;6206;53.100;11.098;2022-08-21T00:20:42;16.20;99.90
12287;DHT22;6206;53.100;11.098;2022-08-21T00:23:09;16.30;99.90
12287;DHT22;6206;53.100;11.098;2022-08-21T00:25:37;15.90;99.90
12287;DHT22;6206;53.100;11.098;2022-08-21T00:28:04;16.10;99.90
12287;DHT22;6206;53.100;11.098;2022-08-21T00:30:33;15.70;99.90
12287;DHT22;6206;53.100;11.098;2022-08-21T00:33:01;15.70;99.90
12287;DHT22;6206;53.100;11.098;2022-08-21T00:35:30;15.60;99.90
12287;DHT22;6206;53.100;11.098;2022-08-21T00:37:57;16.70;99.90
12287;DHT22;6206;53.100;11.098;2022-08-21T00:40:27;18.20;99.90
12287;DHT22;6206;53.100;11.098;2022-08-21T00:42:54;15.40;99.90
12287;DHT22;6206;53.100;11.098;2022-08-21T00:45:22;19.40;99.90
12287;DHT22;6206;53.100;11.098;2022-08-21T00:47:50;15.60;99.90
12287;DHT22;6206;53.100;11.098;2022-08-21T00:50:17;15.50;99.90
12287;DHT22;6206;53.100;11.098;2022-08-21T00:52:45;15.50;99.90
12287;DHT22;6206;53.100;11.098;2022-08-21T00:55:13;18.60;99.90
12287;DHT22;6206;53.100;11.098;2022-08-21T00:57:42;16.40;99.90
12287;DHT22;6206;53.100;11.098;2022-08-21T01:00:15;15.50;99.90
12287;DHT22;6206;53.100;11.098;2022-08-21T01:02:43;15.60;99.90
12287;DHT22;6206;53.100;11.098;2022-08-21T01:05:13;19.70;99.90
12287;DHT22;6206;53.100;11.098;2022-08-21T01:07:41;15.30;99.90
12287;DHT22;6206;53.100;11.098;2022-08-21T01:10:08;15.10;99.90
12287;DHT22;6206;53.100;11.098;2022-08-21T01:12:36;15.20;99.90
12287;DHT22;6206;53.100;11.098;2022-08-21T01:15:04;15.20;99.90
12287;DHT22;6206;53.100;11.098;2022-08-21T01:17:32;15.50;99.90
12287;DHT22;6206;53.100;11.098;2022-08-21T01:20:00;15.80;99.90
12287;DHT22;6206;53.100;11.098;2022-08-21T01:22:31;19.00;99.90
12287;DHT22;6206;53.100;11.098;2022-08-21T01:24:58;19.50;99.90
12287;DHT22;6206;53.100;11.098;2022-08-21T01:27:24;16.00;99.90
12287;DHT22;6206;53.100;11.098;2022-08-21T01:29:54;16.10;99.90
12287;DHT22;6206;53.100;11.098;2022-08-21T01:32:23;19.50;99.90
12287;DHT22;6206;53.100;11.098;2022-08-21T01:34:51;16.00;99.90
12287;DHT22;6206;53.100;11.098;2022-08-21T01:37:18;19.70;99.90
12287;DHT22;6206;53.100;11.098;2022-08-21T01:39:47;15.70;99.90
12287;DHT22;6206;53.100;11.098;2022-08-21T01:42:15;15.30;99.90
12287;DHT22;6206;53.100;11.098;2022-08-21T01:44:42;15.10;99.90
12287;DHT22;6206;53.100;11.098;2022-08-21T01:47:10;17.20;99.90
12287;DHT22;6206;53.100;11.098;2022-08-21T01:49:38;19.10;99.90
12287;DHT22;6206;53.100;11.098;2022-08-21T01:52:06;14.70;99.90
12287;DHT22;6206;53.100;11.098;2022-08-21T01:54:33;18.50;99.90
12287;DHT22;6206;53.100;11.098;2022-08-21T01:57:02;14.40;99.90
12287;DHT22;6206;53.100;11.098;2022-08-21T01:59:30;14.40;99.90
12287;DHT22;6206;53.100;11.098;2022-08-21T02:01:57;15.70;99.90
12287;DHT22;6206;53.100;11.098;2022-08-21T02:04:24;14.20;99.90
12287;DHT22;6206;53.100;11.098;2022-08-21T02:06:50;14.10;99.90
12287;DHT22;6206;53.100;11.098;2022-08-21T02:09:17;17.10;99.90
12287;DHT22;6206;53.100;11.098;2022-08-21T02:11:44;14.00;99.90
12287;DHT22;6206;53.100;11.098;2022-08-21T02:14:14;13.90;99.90
12287;DHT22;6206;53.100;11.098;2022-08-21T02:16:42;14.70;99.90
12287;DHT22;6206;53.100;11.098;2022-08-21T02:19:11;13.90;99.90
12287;DHT22;6206;53.100;11.098;2022-08-21T02:21:38;13.90;99.90
12287;DHT22;6206;53.100;11.098;2022-08-21T02:24:06;16.10;99.90
12287;DHT22;6206;53.100;11.098;2022-08-21T02:26:33;14.00;99.90
12287;DHT22;6206;53.100;11.098;2022-08-21T02:29:01;14.00;99.90
12287;DHT22;6206;53.100;11.098;2022-08-21T02:31:29;14.10;99.90
12287;DHT22;6206;53.100;11.098;2022-08-21T02:33:56;14.00;99.90
12287;DHT22;6206;53.100;11.098;2022-08-21T02:36:23;15.90;99.90
12287;DHT22;6206;53.100;11.098;2022-08-21T02:38:50;14.20;99.90
12287;DHT22;6206;53.100;11.098;2022-08-21T02:41:19;17.70;99.90
12287;DHT22;6206;53.100;11.098;2022-08-21T02:43:47;14.60;99.90
12287;DHT22;6206;53.100;11.098;2022-08-21T02:46:16;14.30;99.90
12287;DHT22;6206;53.100;11.098;2022-08-21T02:48:45;15.20;99.90
12287;DHT22;6206;53.100;11.098;2022-08-21T02:51:14;15.40;99.90
12287;DHT22;6206;53.100;11.098;2022-08-21T02:53:43;15.20;99.90
12287;DHT22;6206;53.100;11.098;2022-08-21T02:56:13;14.80;99.90
12287;DHT22;6206;53.100;11.098;2022-08-21T02:58:43;14.90;99.90
12287;DHT22;6206;53.100;11.098;2022-08-21T03:01:10;15.10;99.90
12287;DHT22;6206;53.100;11.098;2022-08-21T03:03:38;15.90;99.90
12287;DHT22;6206;53.100;11.098;2022-08-21T03:06:09;19.20;99.90
12287;DHT22;6206;53.100;11.098;2022-08-21T03:08:36;15.20;99.90
12287;DHT22;6206;53.100;11.098;2022-08-21T03:11:04;15.20;99.90
12287;DHT22;6206;53.100;11.098;2022-08-21T03:13:31;15.20;99.90
12287;DHT22;6206;53.100;11.098;2022-08-21T03:15:58;15.20;99.90
12287;DHT22;6206;53.100;11.098;2022-08-21T03:18:25;15.00;99.90
12287;DHT22;6206;53.100;11.098;2022-08-21T03:20:52;15.90;99.90
12287;DHT22;6206;53.100;11.098;2022-08-21T03:23:20;14.00;99.90
12287;DHT22;6206;53.100;11.098;2022-08-21T03:25:47;13.60;99.90
12287;DHT22;6206;53.100;11.098;2022-08-21T03:28:16;13.40;99.90
12287;DHT22;6206;53.100;11.098;2022-08-21T03:30:45;13.30;99.90
12287;DHT22;6206;53.100;11.098;2022-08-21T03:33:13;13.30;99.90
12287;DHT22;6206;53.100;11.098;2022-08-21T03:35:40;13.30;99.90
12287;DHT22;6206;53.100;11.098;2022-08-21T03:38:08;13.30;99.90
12287;DHT22;6206;53.100;11.098;2022-08-21T03:40:36;13.80;99.90
12287;DHT22;6206;53.100;11.098;2022-08-21T03:43:02;13.30;99.90
12287;DHT22;6206;53.100;11.098;2022-08-21T03:45:30;13.20;99.90
12287;DHT22;6206;53.100;11.098;2022-08-21T03:48:00;13.10;99.90
12287;DHT22;6206;53.100;11.098;2022-08-21T03:50:35;13.90;99.90
12287;DHT22;6206;53.100;11.098;2022-08-21T03:53:02;13.20;99.90
12287;DHT22;6206;53.100;11.098;2022-08-21T03:55:29;13.30;99.90
12287;DHT22;6206;53.100;11.098;2022-08-21T03:57:57;13.30;99.90
12287;DHT22;6206;53.100;11.098;2022-08-21T04:00:25;13.50;99.90
12287;DHT22;6206;53.100;11.098;2022-08-21T04:02:52;13.70;99.90
12287;DHT22;6206;53.100;11.098;2022-08-21T04:05:19;14.00;99.90
12287;DHT22;6206;53.100;11.098;2022-08-21T04:07:54;14.20;99.90
12287;DHT22;6206;53.100;11.098;2022-08-21T04:10:21;14.30;99.90
12287;DHT22;6206;53.100;11.098;2022-08-21T04:12:48;17.90;99.90
12287;DHT22;6206;53.100;11.098;2022-08-21T04:15:17;14.40;99.90
12287;DHT22;6206;53.100;11.098;2022-08-21T04:17:44;14.50;99.90
12287;DHT22;6206;53.100;11.098;2022-08-21T04:20:10;14.40;99.90
12287;DHT22;6206;53.100;11.098;2022-08-21T04:22:38;14.50;99.90
12287;DHT22;6206;53.100;11.098;2022-08-21T04:25:05;14.50;99.90
12287;DHT22;6206;53.100;11.098;2022-08-21T04:27:32;14.50;99.90
12287;DHT22;6206;53.100;11.098;2022-08-21T04:29:59;17.30;99.90
12287;DHT22;6206;53.100;11.098;2022-08-21T04:32:27;14.40;99.90
12287;DHT22;6206;53.100;11.098;2022-08-21T04:34:58;14.40;99.90
12287;DHT22;6206;53.100;11.098;2022-08-21T04:37:25;14.40;99.90
12287;DHT22;6206;53.100;11.098;2022-08-21T04:39:51;14.40;99.90
12287;DHT22;6206;53.100;11.098;2022-08-21T04:42:18;16.10;99.90
12287;DHT22;6206;53.100;11.098;2022-08-21T04:44:47;14.40;99.90
12287;DHT22;6206;53.100;11.098;2022-08-21T04:47:14;14.40;99.90
12287;DHT22;6206;53.100;11.098;2022-08-21T04:49:43;15.10;99.90
12287;DHT22;6206;53.100;11.098;2022-08-21T04:52:11;15.50;99.90
12287;DHT22;6206;53.100;11.098;2022-08-21T04:54:40;14.50;99.90
12287;DHT22;6206;53.100;11.098;2022-08-21T04:57:09;14.50;99.90
12287;DHT22;6206;53.100;11.098;2022-08-21T04:59:38;14.50;99.90
12287;DHT22;6206;53.100;11.098;2022-08-21T05:02:06;14.60;99.90
12287;DHT22;6206;53.100;11.098;2022-08-21T05:04:35;18.10;99.90
12287;DHT22;6206;53.100;11.098;2022-08-21T05:07:05;17.20;99.90
12287;DHT22;6206;53.100;11.098;2022-08-21T05:09:34;13.80;99.90
12287;DHT22;6206;53.100;11.098;2022-08-21T05:12:01;13.50;99.90
12287;DHT22;6206;53.100;11.098;2022-08-21T05:14:28;13.60;99.90
12287;DHT22;6206;53.100;11.098;2022-08-21T05:16:56;13.90;99.90
12287;DHT22;6206;53.100;11.098;2022-08-21T05:19:22;14.50;99.90
12287;DHT22;6206;53.100;11.098;2022-08-21T05:21:49;13.60;99.90
12287;DHT22;6206;53.100;11.098;2022-08-21T05:24:17;13.50;99.90
12287;DHT22;6206;53.100;11.098;2022-08-21T05:26:45;13.40;99.90
12287;DHT22;6206;53.100;11.098;2022-08-21T05:29:12;13.50;99.90
12287;DHT22;6206;53.100;11.098;2022-08-21T05:31:39;13.50;99.90
12287;DHT22;6206;53.100;11.098;2022-08-21T05:34:06;14.00;99.90
12287;DHT22;6206;53.100;11.098;2022-08-21T05:36:33;14.30;99.90
12287;DHT22;6206;53.100;11.098;2022-08-21T05:39:00;14.70;99.90
12287;DHT22;6206;53.100;11.098;2022-08-21T05:41:28;14.90;99.90
12287;DHT22;6206;53.100;11.098;2022-08-21T05:43:55;15.10;99.90
12287;DHT22;6206;53.100;11.098;2022-08-21T05:46:21;15.20;99.90
12287;DHT22;6206;53.100;11.098;2022-08-21T05:48:48;15.30;99.90
12287;DHT22;6206;53.100;11.098;2022-08-21T05:51:16;15.30;99.90
12287;DHT22;6206;53.100;11.098;2022-08-21T05:53:43;15.30;99.90
12287;DHT22;6206;53.100;11.098;2022-08-21T05:56:11;15.50;99.90
12287;DHT22;6206;53.100;11.098;2022-08-21T05:58:39;15.40;99.90
12287;DHT22;6206;53.100;11.098;2022-08-21T06:01:06;18.00;99.90
12287;DHT22;6206;53.100;11.098;2022-08-21T06:03:36;19.50;99.90
12287;DHT22;6206;53.100;11.098;2022-08-21T06:06:03;15.70;99.90
12287;DHT22;6206;53.100;11.098;2022-08-21T06:08:30;15.70;99.90
12287;DHT22;6206;53.100;11.098;2022-08-21T06:10:58;17.80;99.90
12287;DHT22;6206;53.100;11.098;2022-08-21T06:13:28;15.90;99.90
12287;DHT22;6206;53.100;11.098;2022-08-21T06:16:06;19.40;99.90
12287;DHT22;6206;53.100;11.098;2022-08-21T06:18:34;16.10;99.90
12287;DHT22;6206;53.100;11.098;2022-08-21T06:21:01;16.60;99.90
12287;DHT22;6206;53.100;11.098;2022-08-21T06:23:28;19.70;99.90
12287;DHT22;6206;53.100;11.098;2022-08-21T06:25:55;16.30;99.90
12287;DHT22;6206;53.100;11.098;2022-08-21T06:28:21;16.40;99.90
12287;DHT22;6206;53.100;11.098;2022-08-21T06:30:48;20.40;99.90
12287;DHT22;6206;53.100;11.098;2022-08-21T06:33:16;17.80;99.90
12287;DHT22;6206;53.100;11.098;2022-08-21T06:35:43;17.80;99.90
12287;DHT22;6206;53.100;11.098;2022-08-21T06:38:10;16.90;99.90
12287;DHT22;6206;53.100;11.098;2022-08-21T06:40:37;20.20;99.90
12287;DHT22;6206;53.100;11.098;2022-08-21T06:43:09;17.20;99.90
12287;DHT22;6206;53.100;11.098;2022-08-21T06:45:36;21.40;99.90
12287;DHT22;6206;53.100;11.098;2022-08-21T06:48:03;18.70;99.90
12287;DHT22;6206;53.100;11.098;2022-08-21T06:50:32;17.70;99.90
12287;DHT22;6206;53.100;11.098;2022-08-21T06:53:00;17.90;99.90
12287;DHT22;6206;53.100;11.098;2022-08-21T06:55:27;20.50;99.90
12287;DHT22;6206;53.100;11.098;2022-08-21T06:57:54;20.90;99.90
12287;DHT22;6206;53.100;11.098;2022-08-21T07:00:21;21.10;99.90
12287;DHT22;6206;53.100;11.098;2022-08-21T07:02:47;19.70;99.90
12287;DHT22;6206;53.100;11.098;2022-08-21T07:05:14;19.90;99.90
12287;DHT22;6206;53.100;11.098;2022-08-21T07:07:42;18.60;99.90
12287;DHT22;6206;53.100;11.098;2022-08-21T07:10:09;21.00;99.90
12287;DHT22;6206;53.100;11.098;2022-08-21T07:12:35;20.90;99.90
12287;DHT22;6206;53.100;11.098;2022-08-21T07:15:03;20.60;99.90
12287;DHT22;6206;53.100;11.098;2022-08-21T07:17:30;18.80;99.90
12287;DHT22;6206;53.100;11.098;2022-08-21T07:19:56;19.80;99.90
12287;DHT22;6206;53.100;11.098;2022-08-21T07:22:23;21.30;99.90
12287;DHT22;6206;53.100;11.098;2022-08-21T07:24:51;20.50;99.90
12287;DHT22;6206;53.100;11.098;2022-08-21T07:27:18;19.30;99.90
12287;DHT22;6206;53.100;11.098;2022-08-21T07:29:45;19.20;99.90
12287;DHT22;6206;53.100;11.098;2022-08-21T07:32:12;21.00;99.90
12287;DHT22;6206;53.100;11.098;2022-08-21T07:34:40;19.70;99.90
12287;DHT22;6206;53.100;11.098;2022-08-21T07:37:07;21.80;99.90
12287;DHT22;6206;53.100;11.098;2022-08-21T07:39:33;19.40;99.90
12287;DHT22;6206;53.100;11.098;2022-08-21T07:42:02;19.60;99.90
12287;DHT22;6206;53.100;11.098;2022-08-21T07:44:28;19.70;99.90
12287;DHT22;6206;53.100;11.098;2022-08-21T07:46:55;20.00;99.90
12287;DHT22;6206;53.100;11.098;2022-08-21T07:49:22;21.50;99.90
12287;DHT22;6206;53.100;11.098;2022-08-21T07:51:48;21.40;99.90
12287;DHT22;6206;53.100;11.098;2022-08-21T07:54:15;20.60;99.90
12287;DHT22;6206;53.100;11.098;2022-08-21T07:56:42;21.00;99.90
12287;DHT22;6206;53.100;11.098;2022-08-21T07:59:10;19.80;99.90
12287;DHT22;6206;53.100;11.098;2022-08-21T08:01:37;20.40;99.90
12287;DHT22;6206;53.100;11.098;2022-08-21T08:04:04;20.90;99.90
12287;DHT22;6206;53.100;11.098;2022-08-21T08:06:31;18.40;99.90
12287;DHT22;6206;53.100;11.098;2022-08-21T08:08:57;20.80;99.90
12287;DHT22;6206;53.100;11.098;2022-08-21T08:11:24;20.60;99.90
12287;DHT22;6206;53.100;11.098;2022-08-21T08:13:51;22.10;99.90
12287;DHT22;6206;53.100;11.098;2022-08-21T08:16:20;21.90;99.90
12287;DHT22;6206;53.100;11.098;2022-08-21T08:18:46;21.90;99.90
12287;DHT22;6206;53.100;11.098;2022-08-21T08:21:13;21.20;99.90
12287;DHT22;6206;53.100;11.098;2022-08-21T08:23:40;21.40;99.90
12287;DHT22;6206;53.100;11.098;2022-08-21T08:26:09;21.50;99.90
12287;DHT22;6206;53.100;11.098;2022-08-21T08:28:36;21.60;99.90
12287;DHT22;6206;53.100;11.098;2022-08-21T08:31:03;23.80;99.90
12287;DHT22;6206;53.100;11.098;2022-08-21T08:33:31;21.60;99.90
12287;DHT22;6206;53.100;11.098;2022-08-21T08:36:01;21.70;99.90
12287;DHT22;6206;53.100;11.098;2022-08-21T08:38:28;21.70;99.90
12287;DHT22;6206;53.100;11.098;2022-08-21T08:41:00;21.80;99.90
12287;DHT22;6206;53.100;11.098;2022-08-21T08:43:28;23.40;99.90
12287;DHT22;6206;53.100;11.098;2022-08-21T08:45:58;21.80;99.90
12287;DHT22;6206;53.100;11.098;2022-08-21T08:48:43;22.10;99.90
12287;DHT22;6206;53.100;11.098;2022-08-21T08:51:16;23.90;99.90
12287;DHT22;6206;53.100;11.098;2022-08-21T08:53:49;22.50;99.90
12287;DHT22;6206;53.100;11.098;2022-08-21T08:56:22;22.30;99.90
12287;DHT22;6206;53.100;11.098;2022-08-21T08:58:52;22.20;99.90
12287;DHT22;6206;53.100;11.098;2022-08-21T09:01:20;22.20;99.90
12287;DHT22;6206;53.100;11.098;2022-08-21T09:03:49;22.20;99.90
12287;DHT22;6206;53.100;11.098;2022-08-21T09:06:37;24.80;99.90
12287;DHT22;6206;53.100;11.098;2022-08-21T09:09:19;21.40;99.90
12287;DHT22;6206;53.100;11.098;2022-08-21T09:11:59;22.10;99.90
12287;DHT22;6206;53.100;11.098;2022-08-21T09:14:37;21.90;99.90
12287;DHT22;6206;53.100;11.098;2022-08-21T09:17:16;22.00;99.90
12287;DHT22;6206;53.100;11.098;2022-08-21T09:19:56;22.00;99.90
12287;DHT22;6206;53.100;11.098;2022-08-21T09:22:33;21.90;99.90
12287;DHT22;6206;53.100;11.098;2022-08-21T09:25:09;21.60;99.90
12287;DHT22;6206;53.100;11.098;2022-08-21T09:27:38;22.00;99.90
12287;DHT22;6206;53.100;11.098;2022-08-21T09:30:07;22.10;99.90
12287;DHT22;6206;53.100;11.098;2022-08-21T09:32:35;22.20;99.90
12287;DHT22;6206;53.100;11.098;2022-08-21T09:35:07;22.40;99.90
12287;DHT22;6206;53.100;11.098;2022-08-21T09:37:44;22.10;99.90
12287;DHT22;6206;53.100;11.098;2022-08-21T09:40:20;22.60;99.90
12287;DHT22;6206;53.100;11.098;2022-08-21T09:42:55;22.10;99.90
12287;DHT22;6206;53.100;11.098;2022-08-21T09:45:22;22.40;99.90
12287;DHT22;6206;53.100;11.098;2022-08-21T09:47:49;25.10;99.90
12287;DHT22;6206;53.100;11.098;2022-08-21T09:50:20;22.80;99.90
12287;DHT22;6206;53.100;11.098;2022-08-21T09:52:50;22.90;99.90
12287;DHT22;6206;53.100;11.098;2022-08-21T09:55:23;23.00;99.90
12287;DHT22;6206;53.100;11.098;2022-08-21T09:58:10;23.20;99.90
12287;DHT22;6206;53.100;11.098;2022-08-21T10:00:37;23.50;99.90
12287;DHT22;6206;53.100;11.098;2022-08-21T10:03:12;23.70;99.90
12287;DHT22;6206;53.100;11.098;2022-08-21T10:05:52;23.80;99.90
12287;DHT22;6206;53.100;11.098;2022-08-21T10:08:21;24.70;99.90
12287;DHT22;6206;53.100;11.098;2022-08-21T10:10:51;23.60;99.90
12287;DHT22;6206;53.100;11.098;2022-08-21T10:13:24;24.00;99.90
12287;DHT22;6206;53.100;11.098;2022-08-21T10:16:04;24.30;99.90
12287;DHT22;6206;53.100;11.098;2022-08-21T10:18:39;24.30;99.90
12287;DHT22;6206;53.100;11.098;2022-08-21T10:21:15;24.50;99.90
12287;DHT22;6206;53.100;11.098;2022-08-21T10:24:00;24.60;99.90
12287;DHT22;6206;53.100;11.098;2022-08-21T10:26:38;25.40;99.90
12287;DHT22;6206;53.100;11.098;2022-08-21T10:29:13;26.50;99.90
12287;DHT22;6206;53.100;11.098;2022-08-21T10:31:47;24.90;99.90
12287;DHT22;6206;53.100;11.098;2022-08-21T10:34:35;26.60;99.90
12287;DHT22;6206;53.100;11.098;2022-08-21T10:37:18;25.30;99.90
12287;DHT22;6206;53.100;11.098;2022-08-21T10:39:59;25.90;99.90
12287;DHT22;6206;53.100;11.098;2022-08-21T10:42:33;25.50;99.90
12287;DHT22;6206;53.100;11.098;2022-08-21T10:45:18;25.70;99.90
12287;DHT22;6206;53.100;11.098;2022-08-21T10:47:54;27.10;99.90
12287;DHT22;6206;53.100;11.098;2022-08-21T10:50:30;26.00;99.90
12287;DHT22;6206;53.100;11.098;2022-08-21T10:53:15;25.30;99.90
12287;DHT22;6206;53.100;11.098;2022-08-21T10:55:48;25.80;99.90
12287;DHT22;6206;53.100;11.098;2022-08-21T10:58:21;25.60;99.90
12287;DHT22;6206;53.100;11.098;2022-08-21T11:00:51;25.80;99.90
12287;DHT22;6206;53.100;11.098;2022-08-21T11:03:27;25.80;99.90
12287;DHT22;6206;53.100;11.098;2022-08-21T11:05:57;25.80;99.90
12287;DHT22;6206;53.100;11.098;2022-08-21T11:08:31;25.40;99.90
12287;DHT22;6206;53.100;11.098;2022-08-21T11:11:04;25.50;99.90
12287;DHT22;6206;53.100;11.098;2022-08-21T11:13:37;25.90;99.90
12287;DHT22;6206;53.100;11.098;2022-08-21T11:16:09;26.40;99.90
12287;DHT22;6206;53.100;11.098;2022-08-21T11:18:39;26.40;99.90
12287;DHT22;6206;53.100;11.098;2022-08-21T11:21:20;26.40;99.90
12287;DHT22;6206;53.100;11.098;2022-08-21T11:23:59;26.40;99.90
12287;DHT22;6206;53.100;11.098;2022-08-21T11:26:34;26.50;99.90
12287;DHT22;6206;53.100;11.098;2022-08-21T11:29:05;26.40;99.90
12287;DHT22;6206;53.100;11.098;2022-08-21T11:31:49;26.40;99.90
12287;DHT22;6206;53.100;11.098;2022-08-21T11:34:26;26.50;99.90
12287;DHT22;6206;53.100;11.098;2022-08-21T11:37:02;26.40;99.90
12287;DHT22;6206;53.100;11.098;2022-08-21T11:39:41;26.40;99.90
12287;DHT22;6206;53.100;11.098;2022-08-21T11:42:18;26.30;99.90
12287;DHT22;6206;53.100;11.098;2022-08-21T11:44:52;26.30;99.90
12287;DHT22;6206;53.100;11.098;2022-08-21T11:47:29;26.40;99.90
12287;DHT22;6206;53.100;11.098;2022-08-21T11:50:11;26.30;99.90
12287;DHT22;6206;53.100;11.098;2022-08-21T11:52:42;26.20;99.90
12287;DHT22;6206;53.100;11.098;2022-08-21T11:55:16;26.20;99.90
12287;DHT22;6206;53.100;11.098;2022-08-21T11:57:52;26.50;99.90
12287;DHT22;6206;53.100;11.098;2022-08-21T12:00:25;26.30;99.90
12287;DHT22;6206;53.100;11.098;2022-08-21T12:02:55;26.20;99.90
12287;DHT22;6206;53.100;11.098;2022-08-21T12:05:27;26.10;99.90
12287;DHT22;6206;53.100;11.098;2022-08-21T12:08:04;26.10;99.90
12287;DHT22;6206;53.100;11.098;2022-08-21T12:10:35;26.10;99.90
12287;DHT22;6206;53.100;11.098;2022-08-21T12:13:07;26.30;99.90
12287;DHT22;6206;53.100;11.098;2022-08-21T12:15:35;26.00;99.90
12287;DHT22;6206;53.100;11.098;2022-08-21T12:18:05;26.00;99.90
12287;DHT22;6206;53.100;11.098;2022-08-21T12:20:39;26.10;99.90
12287;DHT22;6206;53.100;11.098;2022-08-21T12:23:17;26.10;99.90
12287;DHT22;6206;53.100;11.098;2022-08-21T12:25:47;25.90;99.90
12287;DHT22;6206;53.100;11.098;2022-08-21T12:28:25;25.80;99.90
12287;DHT22;6206;53.100;11.098;2022-08-21T12:30:52;25.60;99.90
12287;DHT22;6206;53.100;11.098;2022-08-21T12:33:22;25.30;99.90
12287;DHT22;6206;53.100;11.098;2022-08-21T12:35:52;25.00;99.90
12287;DHT22;6206;53.100;11.098;2022-08-21T12:38:22;26.90;99.90
12287;DHT22;6206;53.100;11.098;2022-08-21T12:40:54;25.40;99.90
12287;DHT22;6206;53.100;11.098;2022-08-21T12:43:37;25.60;99.90
12287;DHT22;6206;53.100;11.098;2022-08-21T12:46:05;25.60;99.90
12287;DHT22;6206;53.100;11.098;2022-08-21T12:48:35;25.40;99.90
12287;DHT22;6206;53.100;11.098;2022-08-21T12:51:10;25.40;99.90
12287;DHT22;6206;53.100;11.098;2022-08-21T12:53:42;25.40;99.90
12287;DHT22;6206;53.100;11.098;2022-08-21T12:56:13;25.30;99.90
12287;DHT22;6206;53.100;11.098;2022-08-21T12:58:43;25.60;99.90
12287;DHT22;6206;53.100;11.098;2022-08-21T13:01:18;25.60;99.90
12287;DHT22;6206;53.100;11.098;2022-08-21T13:03:46;25.80;99.90
12287;DHT22;6206;53.100;11.098;2022-08-21T13:06:15;25.90;99.90
12287;DHT22;6206;53.100;11.098;2022-08-21T13:08:43;26.20;99.90
12287;DHT22;6206;53.100;11.098;2022-08-21T13:11:15;26.10;99.90
12287;DHT22;6206;53.100;11.098;2022-08-21T13:13:43;25.90;99.90
12287;DHT22;6206;53.100;11.098;2022-08-21T13:16:10;25.60;99.90
12287;DHT22;6206;53.100;11.098;2022-08-21T13:18:52;25.60;99.90
12287;DHT22;6206;53.100;11.098;2022-08-21T13:21:20;26.10;99.90
12287;DHT22;6206;53.100;11.098;2022-08-21T13:23:47;26.50;99.90
12287;DHT22;6206;53.100;11.098;2022-08-21T13:26:17;26.40;99.90
12287;DHT22;6206;53.100;11.098;2022-08-21T13:28:46;26.70;99.90
12287;DHT22;6206;53.100;11.098;2022-08-21T13:31:18;26.50;99.90
12287;DHT22;6206;53.100;11.098;2022-08-21T13:33:44;26.40;99.90
12287;DHT22;6206;53.100;11.098;2022-08-21T13:36:15;26.00;99.90
12287;DHT22;6206;53.100;11.098;2022-08-21T13:38:45;26.00;99.90
12287;DHT22;6206;53.100;11.098;2022-08-21T13:41:26;26.00;99.90
12287;DHT22;6206;53.100;11.098;2022-08-21T13:43:58;25.90;99.90
12287;DHT22;6206;53.100;11.098;2022-08-21T13:46:27;26.10;99.90
12287;DHT22;6206;53.100;11.098;2022-08-21T13:48:55;28.00;99.90
12287;DHT22;6206;53.100;11.098;2022-08-21T13:51:22;29.50;99.90
12287;DHT22;6206;53.100;11.098;2022-08-21T13:53:51;31.90;99.20
12287;DHT22;6206;53.100;11.098;2022-08-21T13:56:23;32.90;94.60
12287;DHT22;6206;53.100;11.098;2022-08-21T13:58:54;32.40;93.50
12287;DHT22;6206;53.100;11.098;2022-08-21T14:01:23;33.60;91.40
12287;DHT22;6206;53.100;11.098;2022-08-21T14:03:53;34.80;87.70
12287;DHT22;6206;53.100;11.098;2022-08-21T14:06:24;35.00;81.30
12287;DHT22;6206;53.100;11.098;2022-08-21T14:08:53;35.10;76.20
12287;DHT22;6206;53.100;11.098;2022-08-21T14:11:21;34.10;76.40
12287;DHT22;6206;53.100;11.098;2022-08-21T14:13:56;33.60;77.20
12287;DHT22;6206;53.100;11.098;2022-08-21T14:16:25;31.90;79.00
12287;DHT22;6206;53.100;11.098;2022-08-21T14:18:53;30.10;81.20
12287;DHT22;6206;53.100;11.098;2022-08-21T14:21:24;30.20;82.30
12287;DHT22;6206;53.100;11.098;2022-08-21T14:23:59;30.50;83.10
12287;DHT22;6206;53.100;11.098;2022-08-21T14:26:26;33.20;80.80
12287;DHT22;6206;53.100;11.098;2022-08-21T14:28:58;34.60;78.60
12287;DHT22;6206;53.100;11.098;2022-08-21T14:31:30;34.40;76.20
12287;DHT22;6206;53.100;11.098;2022-08-21T14:33:58;34.50;74.70
12287;DHT22;6206;53.100;11.098;2022-08-21T14:36:25;33.90;72.40
12287;DHT22;6206;53.100;11.098;2022-08-21T14:38:52;34.60;72.60
12287;DHT22;6206;53.100;11.098;2022-08-21T14:41:21;35.40;71.50
12287;DHT22;6206;53.100;11.098;2022-08-21T14:43:49;34.40;69.40
12287;DHT22;6206;53.100;11.098;2022-08-21T14:46:22;33.30;71.00
12287;DHT22;6206;53.100;11.098;2022-08-21T14:48:49;31.30;71.40
12287;DHT22;6206;53.100;11.098;2022-08-21T14:51:16;30.00;73.10
12287;DHT22;6206;53.100;11.098;2022-08-21T14:53:42;29.00;77.10
12287;DHT22;6206;53.100;11.098;2022-08-21T14:56:09;28.10;78.20
12287;DHT22;6206;53.100;11.098;2022-08-21T14:58:37;27.80;80.70
12287;DHT22;6206;53.100;11.098;2022-08-21T15:01:05;27.40;83.50
12287;DHT22;6206;53.100;11.098;2022-08-21T15:03:33;27.20;85.30
12287;DHT22;6206;53.100;11.098;2022-08-21T15:06:00;29.50;85.00
12287;DHT22;6206;53.100;11.098;2022-08-21T15:08:27;30.70;81.30
12287;DHT22;6206;53.100;11.098;2022-08-21T15:10:53;33.50;79.50
12287;DHT22;6206;53.100;11.098;2022-08-21T15:13:20;32.20;74.20
12287;DHT22;6206;53.100;11.098;2022-08-21T15:15:47;31.70;77.20
12287;DHT22;6206;53.100;11.098;2022-08-21T15:18:15;33.50;75.10
12287;DHT22;6206;53.100;11.098;2022-08-21T15:20:42;35.10;72.80
12287;DHT22;6206;53.100;11.098;2022-08-21T15:23:09;34.00;70.20
12287;DHT22;6206;53.100;11.098;2022-08-21T15:25:36;35.00;70.90
12287;DHT22;6206;53.100;11.098;2022-08-21T15:28:06;35.20;69.30
12287;DHT22;6206;53.100;11.098;2022-08-21T15:30:36;34.20;70.20
12287;DHT22;6206;53.100;11.098;2022-08-21T15:33:04;32.20;69.50
12287;DHT22;6206;53.100;11.098;2022-08-21T15:35:31;30.50;72.00
12287;DHT22;6206;53.100;11.098;2022-08-21T15:37:59;29.00;74.60
12287;DHT22;6206;53.100;11.098;2022-08-21T15:40:26;28.20;77.40
12287;DHT22;6206;53.100;11.098;2022-08-21T15:42:57;27.40;80.10
12287;DHT22;6206;53.100;11.098;2022-08-21T15:45:25;26.90;83.60